Time;durP1;ratioP1;P1;durP2;ratioP2;P2;SDS_P1;SDS_P2;PMS_P1;PMS_P2;Temp;Humidity;BMP_temperature;BMP_pressure;BME280_temperature;BME280_humidity;BME280_pressure;Samples;Min_cycle;Max_cycle;Signal;HPM_P1;HPM_P2
2021/08/28 00:00:53;;;;;;;;;;;;;;;34.76;21.97;94221.06;4881384;29;20243;-69
2021/08/28 00:03:22;;;;;;;;;;;;;;;34.68;22.04;94219.81;4880020;29;20275;-69
2021/08/28 00:05:49;;;;;;;;;;;;;;;34.74;22.20;94223.47;4881046;29;19928;-64
2021/08/28 00:08:16;;;;;;;;;;;;;;;34.73;22.04;94216.53;4879607;29;20204;-68
2021/08/28 00:10:43;;;;;;;;;;;;;;;34.46;22.51;94219.09;4881003;29;19931;-66
2021/08/28 00:13:10;;;;;;;;;;;;;;;34.61;22.07;94214.63;4881175;29;19920;-63
2021/08/28 00:15:37;;;;;;;;;;;;;;;34.60;22.18;94213.13;4880802;29;19924;-67
2021/08/28 00:18:04;;;;;;;;;;;;;;;34.73;22.37;94219.25;4867551;29;20252;-66
2021/08/28 00:20:32;;;;;;;;;;;;;;;34.45;22.47;94217.56;4879943;29;19924;-66
2021/08/28 00:23:01;;;;;;;;;;;;;;;34.47;22.42;94223.31;4881037;29;19928;-68
2021/08/28 00:25:28;;;;;;;;;;;;;;;34.46;22.47;94219.09;4880536;29;19931;-65
2021/08/28 00:27:54;;;;;;;;;;;;;;;34.52;22.18;94220.03;4880873;29;19920;-69
2021/08/28 00:30:21;;;;;;;;;;;;;;;34.29;22.67;94219.25;4880563;29;19927;-69
2021/08/28 00:32:48;;;;;;;;;;;;;;;34.27;22.56;94240.63;4863745;29;19931;-65
2021/08/28 00:35:15;;;;;;;;;;;;;;;34.40;22.48;94231.72;4879750;29;19919;-65
2021/08/28 00:37:42;;;;;;;;;;;;;;;34.29;22.54;94226.63;4864017;29;20309;-62
2021/08/28 00:40:10;;;;;;;;;;;;;;;34.32;22.56;94234.63;4879974;29;19927;-67
2021/08/28 00:42:48;;;;;;;;;;;;;;;34.32;22.52;94223.78;4879946;29;19924;-66
2021/08/28 00:45:14;;;;;;;;;;;;;;;34.31;22.61;94227.69;4879649;29;19932;-62
2021/08/28 00:47:47;;;;;;;;;;;;;;;34.19;22.71;94228.53;4880571;29;19924;-59
2021/08/28 00:53:13;;;;;;;;;;;;;;;34.08;22.76;94213.81;4872267;29;20350;-67
2021/08/28 00:55:47;;;;;;;;;;;;;;;34.25;22.51;94215.91;4859641;29;19921;-65
2021/08/28 00:58:14;;;;;;;;;;;;;;;34.29;22.43;94216.53;4848165;29;19927;-67
2021/08/28 01:00:41;;;;;;;;;;;;;;;34.19;22.45;94225.81;4862268;29;19928;-68
2021/08/28 01:03:09;;;;;;;;;;;;;;;34.08;22.29;94228.13;4868738;29;19921;-67
2021/08/28 01:05:51;;;;;;;;;;;;;;;33.75;22.80;94237.78;4862154;29;19987;-60
2021/08/28 01:08:29;;;;;;;;;;;;;;;33.91;22.73;94245.78;4877873;29;20251;-65
2021/08/28 01:11:19;;;;;;;;;;;;;;;34.04;22.56;94249.19;4877659;29;19924;-57
2021/08/28 01:13:57;;;;;;;;;;;;;;;33.83;22.92;94244.47;4862576;29;19931;-63
2021/08/28 01:16:24;;;;;;;;;;;;;;;33.96;22.71;94245.22;4880627;29;19927;-60
2021/08/28 01:18:52;;;;;;;;;;;;;;;33.86;23.02;94240.94;4880022;29;20320;-50
2021/08/28 01:21:27;;;;;;;;;;;;;;;34.00;22.57;94243.16;4865460;29;19920;-65
2021/08/28 01:24:15;;;;;;;;;;;;;;;33.73;22.97;94236.25;4849672;29;19920;-65
2021/08/28 01:27:05;;;;;;;;;;;;;;;33.86;22.83;94238.22;4879383;29;19935;-62
2021/08/28 01:29:33;;;;;;;;;;;;;;;33.93;22.71;94229.84;4865718;29;19924;-55
2021/08/28 01:32:00;;;;;;;;;;;;;;;33.75;22.78;94233.09;4880238;29;19924;-63
2021/08/28 01:34:27;;;;;;;;;;;;;;;33.81;22.92;94227.88;4866378;29;20046;-63
2021/08/28 01:36:54;;;;;;;;;;;;;;;33.87;22.66;94239.72;4880261;29;19931;-61
2021/08/28 01:39:41;;;;;;;;;;;;;;;33.71;22.88;94227.81;4865977;29;20248;-63
2021/08/28 01:42:08;;;;;;;;;;;;;;;33.94;22.42;94234.06;4879971;29;19920;-64
2021/08/28 01:44:36;;;;;;;;;;;;;;;33.96;22.45;94232.44;4880422;29;19927;-68
2021/08/28 01:47:03;;;;;;;;;;;;;;;33.87;22.66;94229.66;4880000;29;19935;-62
2021/08/28 01:49:31;;;;;;;;;;;;;;;33.87;22.74;94226.19;4880288;29;19931;-69
2021/08/28 01:51:58;;;;;;;;;;;;;;;33.84;22.74;94224.34;4879147;29;20236;-68
2021/08/28 01:54:27;;;;;;;;;;;;;;;33.99;22.19;94225.34;4865421;29;19951;-66
2021/08/28 01:56:54;;;;;;;;;;;;;;;33.56;22.97;94226.75;4865211;29;19924;-67
2021/08/28 01:59:21;;;;;;;;;;;;;;;33.81;22.39;94217.03;4879149;29;19931;-61
2021/08/28 02:02:14;;;;;;;;;;;;;;;33.71;22.77;94216.97;4874585;29;19924;-65
2021/08/28 02:04:49;;;;;;;;;;;;;;;33.63;22.66;94218.41;4878477;29;19924;-68
2021/08/28 02:07:20;;;;;;;;;;;;;;;33.61;22.77;94215.38;4878503;29;20253;-68
2021/08/28 02:10:14;;;;;;;;;;;;;;;33.83;22.43;94214.66;4879777;29;20300;-68
2021/08/28 02:12:45;;;;;;;;;;;;;;;33.75;22.59;94205.25;4856940;29;19927;-65
2021/08/28 02:15:39;;;;;;;;;;;;;;;33.89;22.26;94210.22;4879587;29;19920;-66
2021/08/28 02:18:27;;;;;;;;;;;;;;;33.65;22.93;94213.31;4861433;29;19924;-60
2021/08/28 02:21:04;;;;;;;;;;;;;;;33.55;22.80;94211.69;4876820;29;19951;-64
2021/08/28 02:23:35;;;;;;;;;;;;;;;33.52;22.91;94215.28;4876226;29;19921;-65
2021/08/28 02:26:31;;;;;;;;;;;;;;;33.67;22.49;94215.59;4868184;29;19928;-65
2021/08/28 02:29:02;;;;;;;;;;;;;;;33.63;22.36;94218.41;4891742;29;20201;-65
2021/08/28 02:31:31;;;;;;;;;;;;;;;33.54;22.85;94225.69;4862494;29;20248;-66
2021/08/28 02:33:59;;;;;;;;;;;;;;;33.61;22.76;94222.75;4873504;29;20236;-63
2021/08/28 02:36:27;;;;;;;;;;;;;;;33.52;22.49;94218.00;4878631;29;19923;-64
2021/08/28 02:38:54;;;;;;;;;;;;;;;33.50;22.72;94223.09;4863378;29;19924;-62
2021/08/28 02:41:21;;;;;;;;;;;;;;;33.49;22.97;94229.69;4878462;29;19927;-68
2021/08/28 02:43:48;;;;;;;;;;;;;;;33.71;22.40;94227.81;4878360;29;19924;-66
2021/08/28 02:46:15;;;;;;;;;;;;;;;33.66;22.72;94231.09;4878537;29;19924;-68
2021/08/28 02:48:43;;;;;;;;;;;;;;;33.60;22.76;94226.66;4878780;29;19931;-67
2021/08/28 02:51:11;;;;;;;;;;;;;;;33.45;22.93;94215.53;4878276;29;19970;-66
2021/08/28 02:53:44;;;;;;;;;;;;;;;33.38;22.67;94213.81;4878902;29;19935;-65
2021/08/28 02:56:11;;;;;;;;;;;;;;;33.36;23.27;94210.03;4878825;29;19920;-68
2021/08/28 02:58:38;;;;;;;;;;;;;;;33.55;22.78;94211.69;4878178;29;20350;-69
2021/08/28 03:01:05;;;;;;;;;;;;;;;33.61;22.79;94217.34;4864223;29;20237;-68
2021/08/28 03:03:33;;;;;;;;;;;;;;;33.33;23.21;94219.03;4863895;29;19924;-65
2021/08/28 03:06:02;;;;;;;;;;;;;;;33.45;23.04;94210.09;4878572;29;20255;-65
2021/08/28 03:08:34;;;;;;;;;;;;;;;33.52;23.40;94220.69;4878111;29;20324;-67
2021/08/28 03:11:01;;;;;;;;;;;;;;;33.59;23.12;94215.06;4878404;29;19920;-66
2021/08/28 03:13:28;;;;;;;;;;;;;;;33.34;23.31;94225.94;4877694;29;19924;-66
2021/08/28 03:15:55;;;;;;;;;;;;;;;33.37;23.31;94236.66;4878426;29;19931;-64
2021/08/28 03:18:23;;;;;;;;;;;;;;;33.46;22.84;94232.53;4878036;29;19931;-69
2021/08/28 03:20:55;;;;;;;;;;;;;;;33.42;23.32;94222.56;4877593;29;19995;-62
2021/08/28 03:23:23;;;;;;;;;;;;;;;33.53;23.34;94233.06;4878009;29;19970;-64
2021/08/28 03:25:52;;;;;;;;;;;;;;;33.33;23.18;94241.44;4878295;29;19928;-50
2021/08/28 03:28:20;;;;;;;;;;;;;;;33.44;23.38;94243.03;4877264;29;19924;-67
2021/08/28 03:30:47;;;;;;;;;;;;;;;33.59;23.24;94241.41;4862391;29;20286;-69
2021/08/28 03:33:15;;;;;;;;;;;;;;;33.42;23.51;94238.81;4877056;29;19932;-60
2021/08/28 03:35:44;;;;;;;;;;;;;;;33.34;23.70;94236.78;4877392;29;19931;-65
2021/08/28 03:38:11;;;;;;;;;;;;;;;33.47;23.66;94240.22;4877304;29;19924;-67
2021/08/28 03:40:38;;;;;;;;;;;;;;;33.51;23.65;94240.84;4876794;29;19921;-68
2021/08/28 03:43:05;;;;;;;;;;;;;;;33.47;23.53;94240.22;4876793;29;20229;-69
2021/08/28 03:45:32;;;;;;;;;;;;;;;33.53;23.30;94253.97;4863290;29;19928;-69
2021/08/28 03:48:00;;;;;;;;;;;;;;;33.32;23.51;94250.00;4863364;29;19928;-69
2021/08/28 03:50:29;;;;;;;;;;;;;;;33.42;23.10;94246.19;4877260;29;19927;-69
2021/08/28 03:53:00;;;;;;;;;;;;;;;33.43;23.64;94245.00;4876650;29;20225;-68
2021/08/28 03:55:27;;;;;;;;;;;;;;;33.31;23.62;94249.25;4877504;29;19920;-67
2021/08/28 03:57:54;;;;;;;;;;;;;;;33.39;23.38;94244.34;4877589;29;19927;-65
2021/08/28 04:00:21;;;;;;;;;;;;;;;33.45;23.66;94231.78;4862505;29;20325;-68
2021/08/28 04:03:04;;;;;;;;;;;;;;;33.44;23.34;94246.50;4875915;29;19920;-67
2021/08/28 04:05:32;;;;;;;;;;;;;;;33.62;23.41;94246.72;4877484;29;19924;-62
2021/08/28 04:08:09;;;;;;;;;;;;;;;33.78;23.28;94242.31;4863139;29;19927;-67
2021/08/28 04:10:43;;;;;;;;;;;;;;;33.48;23.71;94252.56;4876795;29;19928;-62
2021/08/28 04:13:12;;;;;;;;;;;;;;;33.23;24.03;94249.88;4876777;29;20367;-69
2021/08/28 04:15:39;;;;;;;;;;;;;;;34.00;23.39;94245.84;4861256;29;20316;-69
2021/08/28 04:18:38;;;;;;;;;;;;;;;33.56;24.06;94247.66;4865023;29;20320;-52
2021/08/28 04:21:22;;;;;;;;;;;;;;;33.17;24.44;94254.31;4875626;29;19924;-54
2021/08/28 04:23:49;;;;;;;;;;;;;;;33.17;24.39;94251.59;4876741;29;20346;-48
2021/08/28 04:26:16;;;;;;;;;;;;;;;33.21;24.05;94249.53;4876145;29;19951;-49
2021/08/28 04:28:44;;;;;;;;;;;;;;;33.15;24.14;94238.50;4879438;29;19934;-54
2021/08/28 04:31:12;;;;;;;;;;;;;;;32.93;24.47;94251.91;4863576;29;19924;-70
2021/08/28 04:33:40;;;;;;;;;;;;;;;33.34;24.41;94258.47;4868620;29;20336;-67
2021/08/28 04:36:07;;;;;;;;;;;;;;;33.40;24.14;94245.88;4894875;29;20244;-71
2021/08/28 04:38:34;;;;;;;;;;;;;;;33.26;23.77;94251.69;4869347;29;19931;-55
2021/08/28 04:43:39;;;;;;;;;;;;;;;33.05;23.72;94253.88;4891833;29;19928;-48
2021/08/28 04:46:25;;;;;;;;;;;;;;;33.22;23.88;94253.75;4883469;29;19924;-49
2021/08/28 04:48:54;;;;;;;;;;;;;;;33.36;23.58;94258.78;4883490;29;19985;-49
2021/08/28 04:51:56;;;;;;;;;;;;;;;34.39;22.84;94257.34;4879105;29;19924;-48
2021/08/28 04:54:23;;;;;;;;;;;;;;;34.79;22.69;94250.03;4871482;29;20227;-50
2021/08/28 04:56:52;;;;;;;;;;;;;;;34.22;23.14;94249.34;4914869;29;19919;-48
2021/08/28 04:59:20;;;;;;;;;;;;;;;34.35;22.58;94254.72;4914567;29;20299;-49
2021/08/28 05:01:47;;;;;;;;;;;;;;;33.71;23.59;94249.50;4899760;29;19931;-47
2021/08/28 05:04:16;;;;;;;;;;;;;;;33.94;23.18;94250.31;4899413;29;19927;-48
2021/08/28 05:06:45;;;;;;;;;;;;;;;33.76;23.34;94244.72;4914613;29;19928;-50
2021/08/28 05:09:15;;;;;;;;;;;;;;;33.76;23.17;94258.25;4914589;29;19920;-49
2021/08/28 05:11:42;;;;;;;;;;;;;;;33.59;23.24;94261.13;4882848;29;19938;-50
2021/08/28 05:14:09;;;;;;;;;;;;;;;33.72;22.97;94256.44;4898649;29;19923;-48
2021/08/28 05:16:36;;;;;;;;;;;;;;;33.88;22.95;94257.50;4914331;29;19930;-47
2021/08/28 05:19:13;;;;;;;;;;;;;;;33.70;23.17;94256.09;4914452;29;19919;-48
2021/08/28 05:21:40;;;;;;;;;;;;;;;33.96;22.70;94258.78;4898669;29;19950;-50
2021/08/28 05:24:29;;;;;;;;;;;;;;;33.77;22.85;94257.81;4899046;29;20329;-48
2021/08/28 05:26:58;;;;;;;;;;;;;;;33.88;22.93;94268.34;4899769;29;19927;-49
2021/08/28 05:29:25;;;;;;;;;;;;;;;34.01;22.82;94250.06;4913813;29;19920;-48
2021/08/28 05:31:52;;;;;;;;;;;;;;;34.12;22.43;94247.78;4914458;29;20608;-48
2021/08/28 05:34:19;;;;;;;;;;;;;;;34.10;22.73;94257.56;4898429;29;19927;-48
2021/08/28 05:37:22;;;;;;;;;;;;;;;34.05;22.89;94256.13;4899616;29;19920;-48
2021/08/28 05:40:19;;;;;;;;;;;;;;;34.02;22.90;94252.34;4898242;29;19985;-49
2021/08/28 05:42:46;;;;;;;;;;;;;;;34.48;22.43;94252.72;4865154;29;19936;-47
2021/08/28 05:45:13;;;;;;;;;;;;;;;34.42;22.18;94256.44;4883933;29;20247;-47
2021/08/28 05:47:41;;;;;;;;;;;;;;;34.55;22.21;94259.84;4898829;29;19930;-49
2021/08/28 05:50:11;;;;;;;;;;;;;;;34.56;22.41;94253.22;4884481;29;19920;-49
2021/08/28 05:52:38;;;;;;;;;;;;;;;34.43;22.38;94257.97;4898741;29;19924;-47
2021/08/28 05:55:10;;;;;;;;;;;;;;;34.56;22.39;94250.50;4883773;29;19920;-50
2021/08/28 05:57:38;;;;;;;;;;;;;;;34.81;22.25;94255.00;4883204;29;19924;-48
2021/08/28 06:00:05;;;;;;;;;;;;;;;34.75;22.44;94254.84;4883419;29;19927;-49
2021/08/28 06:02:41;;;;;;;;;;;;;;;34.63;21.96;94253.72;4875250;29;19927;-51
2021/08/28 06:05:16;;;;;;;;;;;;;;;34.99;22.02;94254.38;4897333;29;19923;-47
2021/08/28 06:08:22;;;;;;;;;;;;;;;35.07;22.21;94250.19;4881038;29;19927;-48
2021/08/28 06:10:57;;;;;;;;;;;;;;;35.28;21.86;94243.94;4881814;29;19928;-49
2021/08/28 06:13:47;;;;;;;;;;;;;;;35.58;21.40;94255.19;4881130;29;19954;-47
2021/08/28 06:16:40;;;;;;;;;;;;;;;35.36;22.07;94247.13;4883576;29;20334;-49
2021/08/28 06:19:16;;;;;;;;;;;;;;;35.66;21.63;94234.69;4897548;29;20271;-58
2021/08/28 06:21:44;;;;;;;;;;;;;;;35.57;21.24;94238.13;4877400;29;20571;-51
2021/08/28 06:24:12;;;;;;;;;;;;;;;35.90;21.16;94232.91;4897219;29;19920;-55
2021/08/28 06:26:46;;;;;;;;;;;;;;;35.77;21.19;94235.00;4882768;29;19931;-55
2021/08/28 06:29:13;;;;;;;;;;;;;;;35.77;21.32;94232.28;4898178;29;19924;-53
2021/08/28 06:31:43;;;;;;;;;;;;;;;35.91;21.28;94223.53;4897873;29;19927;-53
2021/08/28 06:34:10;;;;;;;;;;;;;;;36.23;20.43;94221.44;4882376;29;20311;-56
2021/08/28 06:36:38;;;;;;;;;;;;;;;36.52;20.40;94229.88;4875899;29;19931;-49
2021/08/28 06:39:23;;;;;;;;;;;;;;;36.56;20.68;94221.56;4864932;29;19920;-48
2021/08/28 06:42:10;;;;;;;;;;;;;;;36.52;20.44;94224.44;4880203;29;19920;-47
2021/08/28 06:44:55;;;;;;;;;;;;;;;36.68;20.14;94229.53;4901555;29;19923;-48
2021/08/28 06:47:54;;;;;;;;;;;;;;;36.91;20.13;94219.19;4880316;29;19958;-48
2021/08/28 06:50:51;;;;;;;;;;;;;;;36.33;20.45;94214.78;4838869;29;20283;-48
2021/08/28 06:53:36;;;;;;;;;;;;;;;36.76;20.15;94219.09;4900907;29;19919;-48
2021/08/28 06:56:22;;;;;;;;;;;;;;;36.59;20.55;94226.84;4887678;29;19926;-50
2021/08/28 06:59:09;;;;;;;;;;;;;;;37.11;19.35;94221.41;4901366;29;19949;-48
2021/08/28 07:01:41;;;;;;;;;;;;;;;37.84;18.84;94219.06;4878411;29;19924;-48
2021/08/28 07:04:43;;;;;;;;;;;;;;;37.45;19.24;94217.47;4825008;29;19921;-48
2021/08/28 07:07:23;;;;;;;;;;;;;;;36.94;20.01;94219.03;4862085;29;20316;-49
2021/08/28 07:09:51;;;;;;;;;;;;;;;37.56;19.83;94223.16;4866341;29;20327;-48
2021/08/28 07:12:18;;;;;;;;;;;;;;;38.33;18.96;94228.69;4903158;29;19928;-51
2021/08/28 07:14:45;;;;;;;;;;;;;;;38.01;19.00;94229.56;4891714;29;19920;-48
2021/08/28 07:17:25;;;;;;;;;;;;;;;38.21;18.54;94233.19;4915743;29;19924;-48
2021/08/28 07:19:52;;;;;;;;;;;;;;;38.11;18.42;94228.25;4884658;29;20343;-49
2021/08/28 07:22:18;;;;;;;;;;;;;;;38.18;18.16;94233.38;4884138;29;19923;-48
2021/08/28 07:24:45;;;;;;;;;;;;;;;38.80;18.21;94221.56;4884350;29;19923;-50
2021/08/28 07:27:17;;;;;;;;;;;;;;;38.66;18.13;94217.63;4884182;29;19934;-48
2021/08/28 07:30:07;;;;;;;;;;;;;;;39.01;17.71;94220.41;4900969;29;19919;-48
2021/08/28 07:32:34;;;;;;;;;;;;;;;38.98;17.75;94220.59;4900962;29;19920;-50
2021/08/28 07:35:01;;;;;;;;;;;;;;;38.73;18.22;94224.66;4907243;29;19989;-48
2021/08/28 07:37:28;;;;;;;;;;;;;;;39.23;17.38;94224.72;4900816;29;19935;-51
2021/08/28 07:39:54;;;;;;;;;;;;;;;39.46;17.12;94210.13;4899870;29;19931;-49
2021/08/28 07:42:21;;;;;;;;;;;;;;;39.63;17.27;94202.94;4914339;29;19930;-48
2021/08/28 07:44:48;;;;;;;;;;;;;;;39.57;17.22;94204.84;4900766;29;19927;-49
2021/08/28 07:47:16;;;;;;;;;;;;;;;39.97;16.77;94208.81;4900702;29;20304;-49
2021/08/28 07:49:43;;;;;;;;;;;;;;;39.74;17.17;94192.13;4900008;29;19920;-51
2021/08/28 07:52:10;;;;;;;;;;;;;;;39.56;17.44;94192.41;4876806;29;19926;-50
2021/08/28 07:54:37;;;;;;;;;;;;;;;39.14;17.67;94185.34;4888094;29;19923;-48
2021/08/28 07:57:04;;;;;;;;;;;;;;;38.96;17.99;94185.56;4900619;29;19920;-50
2021/08/28 07:59:32;;;;;;;;;;;;;;;38.43;18.33;94193.84;4915285;29;19930;-51
2021/08/28 08:01:59;;;;;;;;;;;;;;;39.20;18.09;94184.69;4914959;29;19919;-50
2021/08/28 08:04:27;;;;;;;;;;;;;;;39.02;17.86;94186.38;4883645;29;20357;-52
2021/08/28 08:07:12;;;;;;;;;;;;;;;38.77;18.04;94184.25;4900270;29;19924;-47
2021/08/28 08:09:58;;;;;;;;;;;;;;;38.42;18.60;94176.72;4900640;29;19953;-50
2021/08/28 08:12:43;;;;;;;;;;;;;;;39.33;17.58;94174.94;4899172;29;20315;-48
2021/08/28 08:15:32;;;;;;;;;;;;;;;39.20;18.11;94171.00;4894261;29;20346;-47
2021/08/28 08:18:34;;;;;;;;;;;;;;;39.52;17.88;94174.69;4842653;29;20283;-48
2021/08/28 08:21:20;;;;;;;;;;;;;;;39.55;17.81;94176.47;4882707;29;20337;-48
2021/08/28 08:24:19;;;;;;;;;;;;;;;39.45;17.78;94178.56;4900117;29;19919;-48
2021/08/28 08:27:06;;;;;;;;;;;;;;;39.88;17.69;94174.13;4898327;29;19923;-48
2021/08/28 08:29:54;;;;;;;;;;;;;;;39.77;17.75;94163.81;4888811;29;20319;-49
2021/08/28 08:32:33;;;;;;;;;;;;;;;39.65;17.86;94167.66;4909350;29;19924;-47
2021/08/28 08:35:00;;;;;;;;;;;;;;;39.89;17.49;94153.00;4898324;29;19989;-48
2021/08/28 08:37:33;;;;;;;;;;;;;;;39.94;17.33;94146.81;4899151;29;19927;-48
2021/08/28 08:40:00;;;;;;;;;;;;;;;40.19;17.21;94145.34;4883695;29;19927;-48
2021/08/28 08:42:35;;;;;;;;;;;;;;;40.34;17.23;94143.25;4897845;29;19928;-51
2021/08/28 08:45:06;;;;;;;;;;;;;;;39.76;17.66;94134.94;4898435;29;19930;-47
2021/08/28 08:47:34;;;;;;;;;;;;;;;40.00;17.41;94131.22;4899644;29;19928;-49
2021/08/28 08:50:01;;;;;;;;;;;;;;;40.21;17.14;94132.69;4883302;29;19927;-49
2021/08/28 08:52:40;;;;;;;;;;;;;;;40.35;17.29;94123.63;4914216;29;19926;-48
2021/08/28 08:55:43;;;;;;;;;;;;;;;40.48;17.18;94125.22;4880937;29;20307;-49
2021/08/28 08:58:10;;;;;;;;;;;;;;;40.56;16.62;94126.28;4914426;29;19950;-52
2021/08/28 09:00:37;;;;;;;;;;;;;;;40.28;17.06;94123.28;4899797;29;19927;-48
2021/08/28 09:03:30;;;;;;;;;;;;;;;40.34;17.08;94115.88;4896778;29;19919;-49
2021/08/28 09:06:01;;;;;;;;;;;;;;;39.91;17.35;94106.75;4882207;29;19920;-47
2021/08/28 09:08:31;;;;;;;;;;;;;;;40.19;17.38;94104.31;4914359;29;19931;-48
2021/08/28 09:10:58;;;;;;;;;;;;;;;39.87;17.46;94106.22;4899371;29;19927;-48
2021/08/28 09:13:26;;;;;;;;;;;;;;;39.95;17.86;94104.56;4898847;29;19924;-51
2021/08/28 09:15:55;;;;;;;;;;;;;;;40.02;17.67;94095.94;4899138;29;19935;-50
2021/08/28 09:18:22;;;;;;;;;;;;;;;40.12;17.37;94100.03;4903122;29;19950;-49
2021/08/28 09:20:49;;;;;;;;;;;;;;;39.76;17.79;94096.66;4901910;29;19927;-51
2021/08/28 09:23:16;;;;;;;;;;;;;;;40.23;17.43;94089.16;4902867;29;19926;-50
2021/08/28 09:25:44;;;;;;;;;;;;;;;39.87;17.76;94087.81;4902927;29;19950;-49
2021/08/28 09:28:11;;;;;;;;;;;;;;;39.86;17.94;94088.31;4886706;29;19931;-50
2021/08/28 09:30:39;;;;;;;;;;;;;;;39.34;18.20;94082.75;4903102;29;19919;-50
2021/08/28 09:33:07;;;;;;;;;;;;;;;39.89;17.71;94076.38;4897960;29;19920;-51
2021/08/28 09:35:46;;;;;;;;;;;;;;;39.75;17.96;94078.72;4902694;29;19931;-50
2021/08/28 09:38:14;;;;;;;;;;;;;;;39.62;17.99;94069.41;4902847;29;20262;-49
2021/08/28 09:40:43;;;;;;;;;;;;;;;39.59;18.01;94062.91;4902166;29;20373;-49
2021/08/28 09:43:14;;;;;;;;;;;;;;;39.09;18.38;94060.34;4901641;29;19935;-50
2021/08/28 09:45:41;;;;;;;;;;;;;;;39.43;18.45;94060.72;4903114;29;19925;-49
2021/08/28 09:48:09;;;;;;;;;;;;;;;39.55;18.22;94059.63;4902173;29;19951;-49
2021/08/28 09:50:37;;;;;;;;;;;;;;;40.20;17.60;94057.28;4903143;29;20331;-48
2021/08/28 09:53:06;;;;;;;;;;;;;;;39.79;18.55;94053.91;4902728;29;19927;-51
2021/08/28 09:55:33;;;;;;;;;;;;;;;40.14;18.72;94051.00;4902558;29;19920;-47
2021/08/28 09:58:00;;;;;;;;;;;;;;;40.15;18.67;94054.50;4888711;29;19927;-52
2021/08/28 10:00:30;;;;;;;;;;;;;;;40.25;18.07;94042.88;4901423;29;19920;-49
2021/08/28 10:02:58;;;;;;;;;;;;;;;40.53;17.86;94039.63;4902556;29;19923;-48
2021/08/28 10:05:26;;;;;;;;;;;;;;;40.33;18.05;94038.44;4902324;29;20347;-49
2021/08/28 10:07:55;;;;;;;;;;;;;;;40.69;17.98;94036.22;4902698;29;20040;-57
2021/08/28 10:10:22;;;;;;;;;;;;;;;40.39;18.47;94024.09;4902784;29;19927;-67
2021/08/28 10:12:49;;;;;;;;;;;;;;;40.23;18.46;94028.94;4892623;29;19931;-48
2021/08/28 10:15:17;;;;;;;;;;;;;;;39.56;18.55;94022.88;4902277;29;20303;-48
2021/08/28 10:17:44;;;;;;;;;;;;;;;39.83;19.05;94023.63;4881226;29;19926;-55
2021/08/28 10:20:11;;;;;;;;;;;;;;;40.33;18.46;94027.50;4889168;29;19931;-72
2021/08/28 10:22:40;;;;;;;;;;;;;;;40.04;18.79;94033.25;4902134;29;20307;-59
2021/08/28 10:25:08;;;;;;;;;;;;;;;40.16;18.54;94023.91;4901504;29;19958;-57
2021/08/28 10:27:36;;;;;;;;;;;;;;;39.84;18.66;94025.13;4883446;29;19938;-60
2021/08/28 10:30:03;;;;;;;;;;;;;;;39.90;18.65;94023.16;4901483;29;19919;-57
2021/08/28 10:32:30;;;;;;;;;;;;;;;39.93;18.75;94016.72;4916235;29;19923;-60
2021/08/28 10:34:57;;;;;;;;;;;;;;;39.88;19.02;94014.69;4886997;29;19924;-54
2021/08/28 10:37:24;;;;;;;;;;;;;;;40.14;19.17;94015.44;4901052;29;19934;-49
2021/08/28 10:39:51;;;;;;;;;;;;;;;40.28;18.91;94009.06;4902387;29;19924;-54
2021/08/28 10:42:19;;;;;;;;;;;;;;;40.40;18.71;94003.69;4892235;29;19920;-53
2021/08/28 10:44:48;;;;;;;;;;;;;;;40.44;18.53;94017.91;4900057;29;20247;-52
2021/08/28 10:47:19;;;;;;;;;;;;;;;40.47;18.96;94008.72;4899953;29;19931;-54
2021/08/28 10:49:50;;;;;;;;;;;;;;;40.57;18.78;94001.78;4915777;29;19924;-53
2021/08/28 10:52:19;;;;;;;;;;;;;;;40.71;18.82;94000.88;4901252;29;20239;-52
2021/08/28 10:54:53;;;;;;;;;;;;;;;41.14;18.25;93987.16;4900285;29;19931;-53
2021/08/28 10:57:25;;;;;;;;;;;;;;;40.83;18.33;93991.50;4882821;29;19927;-54
2021/08/28 11:00:03;;;;;;;;;;;;;;;40.60;18.50;93989.84;4882162;29;19930;-51
2021/08/28 11:02:51;;;;;;;;;;;;;;;40.67;18.45;93981.19;4882001;29;19924;-54
2021/08/28 11:05:22;;;;;;;;;;;;;;;40.78;18.49;93983.22;4901016;29;19927;-52
2021/08/28 11:07:50;;;;;;;;;;;;;;;40.40;18.84;93982.53;4901318;29;19931;-55
2021/08/28 11:10:17;;;;;;;;;;;;;;;40.67;18.46;93972.97;4901385;29;20259;-52
2021/08/28 11:13:03;;;;;;;;;;;;;;;40.88;18.33;93977.09;4900515;29;20009;-52
2021/08/28 11:15:33;;;;;;;;;;;;;;;40.56;18.50;93968.19;4900759;29;19930;-52
2021/08/28 11:18:02;;;;;;;;;;;;;;;40.28;18.76;93981.69;4901218;29;19942;-51
2021/08/28 11:20:41;;;;;;;;;;;;;;;40.39;18.91;93967.34;4900973;29;19924;-52
2021/08/28 11:23:09;;;;;;;;;;;;;;;40.62;18.87;93968.22;4900902;29;19926;-52
2021/08/28 11:25:37;;;;;;;;;;;;;;;40.25;18.87;93960.75;4900624;29;19923;-53
2021/08/28 11:28:05;;;;;;;;;;;;;;;40.12;19.17;93963.16;4888811;29;19928;-52
2021/08/28 11:30:41;;;;;;;;;;;;;;;40.52;18.77;93961.44;4882176;29;19924;-52
2021/08/28 11:33:10;;;;;;;;;;;;;;;40.67;18.83;93951.81;4886338;29;19930;-51
2021/08/28 11:35:40;;;;;;;;;;;;;;;40.79;18.72;93949.84;4899580;29;19920;-52
2021/08/28 11:38:08;;;;;;;;;;;;;;;40.45;18.84;93931.78;4900878;29;19930;-55
2021/08/28 11:40:36;;;;;;;;;;;;;;;40.51;18.77;93935.28;4899692;29;19923;-54
2021/08/28 11:43:03;;;;;;;;;;;;;;;40.26;19.11;93936.88;4899484;29;19932;-53
2021/08/28 11:45:32;;;;;;;;;;;;;;;40.27;19.02;93930.91;4900677;29;19945;-52
2021/08/28 11:47:58;;;;;;;;;;;;;;;40.26;19.40;93923.94;4900955;29;20243;-52
2021/08/28 11:50:30;;;;;;;;;;;;;;;40.33;19.15;93923.47;4899799;29;19927;-54
2021/08/28 11:52:56;;;;;;;;;;;;;;;40.16;19.54;93914.44;4900628;29;19919;-53
2021/08/28 11:55:23;;;;;;;;;;;;;;;40.38;19.44;93913.09;4900388;29;19943;-52
2021/08/28 11:58:03;;;;;;;;;;;;;;;40.32;19.41;93911.03;4900959;29;19927;-53
2021/08/28 12:00:31;;;;;;;;;;;;;;;40.24;19.51;93909.97;4900674;29;19927;-52
2021/08/28 12:02:58;;;;;;;;;;;;;;;40.71;19.08;93898.78;4900512;29;19919;-53
2021/08/28 12:05:25;;;;;;;;;;;;;;;40.65;19.48;93901.50;4899808;29;19920;-51
2021/08/28 12:07:52;;;;;;;;;;;;;;;40.62;19.39;93899.75;4899901;29;19923;-51
2021/08/28 12:10:19;;;;;;;;;;;;;;;40.20;19.59;93898.53;4900675;29;19919;-52
2021/08/28 12:12:59;;;;;;;;;;;;;;;40.24;19.73;93901.78;4899194;29;19997;-53
2021/08/28 12:15:27;;;;;;;;;;;;;;;40.04;20.20;93894.44;4900124;29;19919;-51
2021/08/28 12:17:54;;;;;;;;;;;;;;;40.13;19.78;93888.03;4914445;29;19931;-54
2021/08/28 12:20:25;;;;;;;;;;;;;;;40.36;19.60;93895.13;4900353;29;19923;-51
2021/08/28 12:22:53;;;;;;;;;;;;;;;40.09;20.12;93882.06;4899366;29;19926;-53
2021/08/28 12:25:19;;;;;;;;;;;;;;;39.97;20.01;93875.00;4899912;29;19935;-51
2021/08/28 12:27:47;;;;;;;;;;;;;;;40.17;19.66;93877.59;4900228;29;19927;-52
2021/08/28 12:30:14;;;;;;;;;;;;;;;40.15;20.10;93880.09;4900307;29;19924;-56
2021/08/28 12:32:42;;;;;;;;;;;;;;;40.19;19.94;93877.13;4900109;29;19919;-54
2021/08/28 12:35:09;;;;;;;;;;;;;;;40.12;20.12;93875.59;4899879;29;19919;-52
2021/08/28 12:37:37;;;;;;;;;;;;;;;40.05;20.21;93870.56;4900051;29;19923;-53
2021/08/28 12:40:07;;;;;;;;;;;;;;;40.27;19.99;93865.22;4899761;29;19924;-56
2021/08/28 12:42:37;;;;;;;;;;;;;;;40.23;20.32;93864.69;4882068;29;20418;-52
2021/08/28 12:45:06;;;;;;;;;;;;;;;40.40;20.16;93847.63;4883248;29;19923;-55
2021/08/28 12:47:37;;;;;;;;;;;;;;;39.82;20.65;93847.00;4899512;29;19935;-51
2021/08/28 12:50:04;;;;;;;;;;;;;;;40.02;20.62;93855.13;4899819;29;20247;-52
2021/08/28 12:52:34;;;;;;;;;;;;;;;40.14;20.33;93845.75;4899303;29;19919;-55
2021/08/28 12:55:01;;;;;;;;;;;;;;;40.13;20.45;93841.50;4899339;29;19924;-53
2021/08/28 12:57:29;;;;;;;;;;;;;;;40.21;20.47;93841.78;4899688;29;19931;-53
2021/08/28 13:00:04;;;;;;;;;;;;;;;40.14;20.51;93845.75;4899719;29;19926;-52
2021/08/28 13:02:33;;;;;;;;;;;;;;;39.91;20.73;93844.09;4883212;29;19962;-54
2021/08/28 13:05:00;;;;;;;;;;;;;;;40.10;20.76;93834.28;4899192;29;19934;-53
2021/08/28 13:07:27;;;;;;;;;;;;;;;40.39;20.51;93826.97;4899425;29;20308;-54
2021/08/28 13:10:13;;;;;;;;;;;;;;;39.90;20.77;93820.72;4899608;29;19919;-52
2021/08/28 13:12:44;;;;;;;;;;;;;;;40.28;20.37;93817.44;4898982;29;19938;-52
2021/08/28 13:15:12;;;;;;;;;;;;;;;40.18;20.27;93818.88;4899234;29;19926;-53
2021/08/28 13:17:39;;;;;;;;;;;;;;;39.84;20.90;93828.16;4897988;29;19927;-53